sensor_id;sensor_type;location;lat;lon;timestamp;P1;durP1;ratioP1;P2;durP2;ratioP2
18793;SDS011;29610;49.022;12.114;2023-04-03T00:02:46;5.70;;;2.70;;
18793;SDS011;29610;49.022;12.114;2023-04-03T00:05:35;8.73;;;3.43;;
18793;SDS011;29610;49.022;12.114;2023-04-03T00:08:24;7.07;;;2.97;;
18793;SDS011;29610;49.022;12.114;2023-04-03T00:11:13;7.00;;;2.70;;
18793;SDS011;29610;49.022;12.114;2023-04-03T00:14:04;5.80;;;2.80;;
18793;SDS011;29610;49.022;12.114;2023-04-03T00:16:53;7.10;;;2.53;;
18793;SDS011;29610;49.022;12.114;2023-04-03T00:19:42;7.27;;;2.80;;
18793;SDS011;29610;49.022;12.114;2023-04-03T00:22:31;8.57;;;3.10;;
18793;SDS011;29610;49.022;12.114;2023-04-03T00:25:20;6.70;;;2.93;;
18793;SDS011;29610;49.022;12.114;2023-04-03T00:28:10;6.63;;;2.80;;
18793;SDS011;29610;49.022;12.114;2023-04-03T00:31:01;6.80;;;2.73;;
18793;SDS011;29610;49.022;12.114;2023-04-03T00:33:50;6.57;;;2.57;;
18793;SDS011;29610;49.022;12.114;2023-04-03T00:36:39;6.80;;;3.13;;
18793;SDS011;29610;49.022;12.114;2023-04-03T00:39:28;9.27;;;3.20;;
18793;SDS011;29610;49.022;12.114;2023-04-03T00:42:17;6.20;;;2.60;;
18793;SDS011;29610;49.022;12.114;2023-04-03T00:45:26;6.40;;;2.73;;
18793;SDS011;29610;49.022;12.114;2023-04-03T00:48:24;6.10;;;2.60;;
18793;SDS011;29610;49.022;12.114;2023-04-03T00:51:20;7.67;;;3.20;;
18793;SDS011;29610;49.022;12.114;2023-04-03T00:54:13;6.47;;;2.50;;
18793;SDS011;29610;49.022;12.114;2023-04-03T00:57:02;7.37;;;3.20;;
18793;SDS011;29610;49.022;12.114;2023-04-03T00:59:55;7.40;;;3.20;;
18793;SDS011;29610;49.022;12.114;2023-04-03T01:02:53;7.53;;;2.73;;
18793;SDS011;29610;49.022;12.114;2023-04-03T01:05:43;7.27;;;2.97;;
18793;SDS011;29610;49.022;12.114;2023-04-03T01:08:32;6.27;;;3.00;;
18793;SDS011;29610;49.022;12.114;2023-04-03T01:11:22;6.23;;;2.87;;
18793;SDS011;29610;49.022;12.114;2023-04-03T01:14:12;10.50;;;3.70;;
18793;SDS011;29610;49.022;12.114;2023-04-03T01:17:00;10.43;;;3.47;;
18793;SDS011;29610;49.022;12.114;2023-04-03T01:19:50;8.03;;;2.73;;
18793;SDS011;29610;49.022;12.114;2023-04-03T01:23:06;7.30;;;2.90;;
18793;SDS011;29610;49.022;12.114;2023-04-03T01:26:13;7.27;;;3.07;;
18793;SDS011;29610;49.022;12.114;2023-04-03T01:29:02;6.70;;;2.83;;
18793;SDS011;29610;49.022;12.114;2023-04-03T01:31:54;8.60;;;3.40;;
18793;SDS011;29610;49.022;12.114;2023-04-03T01:34:45;15.53;;;4.27;;
18793;SDS011;29610;49.022;12.114;2023-04-03T01:37:34;7.20;;;3.23;;
18793;SDS011;29610;49.022;12.114;2023-04-03T01:40:22;7.27;;;3.27;;
18793;SDS011;29610;49.022;12.114;2023-04-03T01:43:12;7.43;;;3.13;;
18793;SDS011;29610;49.022;12.114;2023-04-03T01:46:01;6.20;;;2.87;;
18793;SDS011;29610;49.022;12.114;2023-04-03T01:48:51;7.97;;;3.60;;
18793;SDS011;29610;49.022;12.114;2023-04-03T01:51:40;6.93;;;3.13;;
18793;SDS011;29610;49.022;12.114;2023-04-03T01:54:29;11.67;;;3.70;;
18793;SDS011;29610;49.022;12.114;2023-04-03T01:57:18;7.90;;;3.40;;
18793;SDS011;29610;49.022;12.114;2023-04-03T02:00:08;9.10;;;3.53;;
18793;SDS011;29610;49.022;12.114;2023-04-03T02:02:58;6.30;;;3.13;;
18793;SDS011;29610;49.022;12.114;2023-04-03T02:05:49;7.10;;;3.63;;
18793;SDS011;29610;49.022;12.114;2023-04-03T02:08:38;7.37;;;3.67;;
18793;SDS011;29610;49.022;12.114;2023-04-03T02:11:28;7.10;;;3.17;;
18793;SDS011;29610;49.022;12.114;2023-04-03T02:14:17;6.40;;;3.00;;
18793;SDS011;29610;49.022;12.114;2023-04-03T02:17:08;7.30;;;3.20;;
18793;SDS011;29610;49.022;12.114;2023-04-03T02:19:57;8.40;;;2.67;;
18793;SDS011;29610;49.022;12.114;2023-04-03T02:22:48;8.27;;;2.77;;
18793;SDS011;29610;49.022;12.114;2023-04-03T02:25:37;9.47;;;3.30;;
18793;SDS011;29610;49.022;12.114;2023-04-03T02:28:26;8.03;;;3.07;;
18793;SDS011;29610;49.022;12.114;2023-04-03T02:31:15;9.17;;;3.10;;
18793;SDS011;29610;49.022;12.114;2023-04-03T02:34:06;7.70;;;3.60;;
18793;SDS011;29610;49.022;12.114;2023-04-03T02:36:56;7.80;;;3.60;;
18793;SDS011;29610;49.022;12.114;2023-04-03T02:39:47;6.70;;;3.23;;
18793;SDS011;29610;49.022;12.114;2023-04-03T02:42:36;6.97;;;3.10;;
18793;SDS011;29610;49.022;12.114;2023-04-03T02:45:25;6.50;;;3.37;;
18793;SDS011;29610;49.022;12.114;2023-04-03T02:48:14;10.40;;;3.37;;
18793;SDS011;29610;49.022;12.114;2023-04-03T02:51:03;7.73;;;3.20;;
18793;SDS011;29610;49.022;12.114;2023-04-03T02:53:53;7.03;;;2.70;;
18793;SDS011;29610;49.022;12.114;2023-04-03T02:56:47;6.77;;;3.27;;
18793;SDS011;29610;49.022;12.114;2023-04-03T02:59:37;6.63;;;2.90;;
18793;SDS011;29610;49.022;12.114;2023-04-03T03:02:28;7.63;;;3.60;;
18793;SDS011;29610;49.022;12.114;2023-04-03T03:05:17;7.00;;;3.30;;
18793;SDS011;29610;49.022;12.114;2023-04-03T03:08:06;6.87;;;3.00;;
18793;SDS011;29610;49.022;12.114;2023-04-03T03:10:55;10.73;;;2.90;;
18793;SDS011;29610;49.022;12.114;2023-04-03T03:13:46;9.43;;;3.77;;
18793;SDS011;29610;49.022;12.114;2023-04-03T03:16:35;7.37;;;2.90;;
18793;SDS011;29610;49.022;12.114;2023-04-03T03:19:24;6.00;;;3.10;;
18793;SDS011;29610;49.022;12.114;2023-04-03T03:22:13;8.87;;;3.43;;
18793;SDS011;29610;49.022;12.114;2023-04-03T03:25:02;7.00;;;3.00;;
18793;SDS011;29610;49.022;12.114;2023-04-03T03:27:56;13.03;;;3.57;;
18793;SDS011;29610;49.022;12.114;2023-04-03T03:30:46;6.40;;;3.10;;
18793;SDS011;29610;49.022;12.114;2023-04-03T03:33:36;8.10;;;3.47;;
18793;SDS011;29610;49.022;12.114;2023-04-03T03:36:25;6.60;;;3.40;;
18793;SDS011;29610;49.022;12.114;2023-04-03T03:39:14;8.93;;;3.50;;
18793;SDS011;29610;49.022;12.114;2023-04-03T03:42:04;8.63;;;3.20;;
18793;SDS011;29610;49.022;12.114;2023-04-03T03:44:53;8.20;;;3.00;;
18793;SDS011;29610;49.022;12.114;2023-04-03T03:47:44;7.60;;;3.03;;
18793;SDS011;29610;49.022;12.114;2023-04-03T03:50:33;6.57;;;3.03;;
18793;SDS011;29610;49.022;12.114;2023-04-03T03:53:22;6.90;;;3.10;;
18793;SDS011;29610;49.022;12.114;2023-04-03T03:56:15;7.73;;;3.17;;
18793;SDS011;29610;49.022;12.114;2023-04-03T03:59:05;7.00;;;3.00;;
18793;SDS011;29610;49.022;12.114;2023-04-03T04:01:55;5.90;;;2.83;;
18793;SDS011;29610;49.022;12.114;2023-04-03T04:04:45;7.70;;;3.37;;
18793;SDS011;29610;49.022;12.114;2023-04-03T04:07:34;6.57;;;2.63;;
18793;SDS011;29610;49.022;12.114;2023-04-03T04:10:23;6.60;;;2.90;;
18793;SDS011;29610;49.022;12.114;2023-04-03T04:13:13;7.53;;;3.20;;
18793;SDS011;29610;49.022;12.114;2023-04-03T04:16:02;8.60;;;3.70;;
18793;SDS011;29610;49.022;12.114;2023-04-03T04:18:53;6.70;;;2.93;;
18793;SDS011;29610;49.022;12.114;2023-04-03T04:21:44;8.40;;;3.10;;
18793;SDS011;29610;49.022;12.114;2023-04-03T04:24:34;6.47;;;2.90;;
18793;SDS011;29610;49.022;12.114;2023-04-03T04:27:25;7.17;;;3.07;;
18793;SDS011;29610;49.022;12.114;2023-04-03T04:30:15;11.67;;;3.30;;
18793;SDS011;29610;49.022;12.114;2023-04-03T04:33:07;7.60;;;3.60;;
18793;SDS011;29610;49.022;12.114;2023-04-03T04:35:57;7.07;;;3.00;;
18793;SDS011;29610;49.022;12.114;2023-04-03T04:38:48;5.50;;;2.70;;
18793;SDS011;29610;49.022;12.114;2023-04-03T04:41:41;7.00;;;3.03;;
18793;SDS011;29610;49.022;12.114;2023-04-03T04:44:30;10.50;;;3.60;;
18793;SDS011;29610;49.022;12.114;2023-04-03T04:47:19;6.53;;;2.50;;
18793;SDS011;29610;49.022;12.114;2023-04-03T04:50:09;8.10;;;3.37;;
18793;SDS011;29610;49.022;12.114;2023-04-03T04:53:00;6.40;;;3.20;;
18793;SDS011;29610;49.022;12.114;2023-04-03T04:55:50;8.13;;;3.00;;
18793;SDS011;29610;49.022;12.114;2023-04-03T04:58:39;8.33;;;3.60;;
18793;SDS011;29610;49.022;12.114;2023-04-03T05:01:28;10.80;;;3.30;;
18793;SDS011;29610;49.022;12.114;2023-04-03T05:04:26;7.23;;;3.47;;
18793;SDS011;29610;49.022;12.114;2023-04-03T05:07:22;8.27;;;3.43;;
18793;SDS011;29610;49.022;12.114;2023-04-03T05:10:13;7.60;;;3.43;;
18793;SDS011;29610;49.022;12.114;2023-04-03T05:13:03;7.80;;;3.60;;
18793;SDS011;29610;49.022;12.114;2023-04-03T05:15:52;6.80;;;3.33;;
18793;SDS011;29610;49.022;12.114;2023-04-03T05:18:42;8.63;;;3.07;;
18793;SDS011;29610;49.022;12.114;2023-04-03T05:21:37;9.80;;;3.93;;
18793;SDS011;29610;49.022;12.114;2023-04-03T05:24:31;11.30;;;3.00;;
18793;SDS011;29610;49.022;12.114;2023-04-03T05:27:20;7.27;;;3.60;;
18793;SDS011;29610;49.022;12.114;2023-04-03T05:30:15;8.20;;;3.50;;
18793;SDS011;29610;49.022;12.114;2023-04-03T05:33:06;8.73;;;3.43;;
18793;SDS011;29610;49.022;12.114;2023-04-03T05:36:02;7.63;;;3.53;;
18793;SDS011;29610;49.022;12.114;2023-04-03T05:38:56;6.60;;;3.10;;
18793;SDS011;29610;49.022;12.114;2023-04-03T05:41:46;9.70;;;3.37;;
18793;SDS011;29610;49.022;12.114;2023-04-03T05:44:34;9.50;;;4.60;;
18793;SDS011;29610;49.022;12.114;2023-04-03T05:47:25;8.80;;;3.57;;
18793;SDS011;29610;49.022;12.114;2023-04-03T05:50:14;7.40;;;3.67;;
18793;SDS011;29610;49.022;12.114;2023-04-03T05:53:03;7.90;;;4.23;;
18793;SDS011;29610;49.022;12.114;2023-04-03T05:55:53;9.67;;;3.70;;
18793;SDS011;29610;49.022;12.114;2023-04-03T05:58:43;7.53;;;3.30;;
18793;SDS011;29610;49.022;12.114;2023-04-03T06:01:33;9.30;;;4.27;;
18793;SDS011;29610;49.022;12.114;2023-04-03T06:04:23;9.03;;;3.83;;
18793;SDS011;29610;49.022;12.114;2023-04-03T06:07:14;7.53;;;3.73;;
18793;SDS011;29610;49.022;12.114;2023-04-03T06:10:07;8.33;;;3.90;;
18793;SDS011;29610;49.022;12.114;2023-04-03T06:12:58;11.60;;;4.33;;
18793;SDS011;29610;49.022;12.114;2023-04-03T06:15:48;9.60;;;3.70;;
18793;SDS011;29610;49.022;12.114;2023-04-03T06:18:37;8.40;;;4.03;;
18793;SDS011;29610;49.022;12.114;2023-04-03T06:21:28;8.63;;;3.70;;
18793;SDS011;29610;49.022;12.114;2023-04-03T06:24:17;8.57;;;3.33;;
18793;SDS011;29610;49.022;12.114;2023-04-03T06:27:08;10.50;;;3.90;;
18793;SDS011;29610;49.022;12.114;2023-04-03T06:29:59;7.50;;;4.30;;
18793;SDS011;29610;49.022;12.114;2023-04-03T06:32:48;8.57;;;4.30;;
18793;SDS011;29610;49.022;12.114;2023-04-03T06:35:37;8.20;;;4.00;;
18793;SDS011;29610;49.022;12.114;2023-04-03T06:38:27;9.03;;;3.93;;
18793;SDS011;29610;49.022;12.114;2023-04-03T06:41:16;12.67;;;3.80;;
18793;SDS011;29610;49.022;12.114;2023-04-03T06:44:05;8.70;;;4.43;;
18793;SDS011;29610;49.022;12.114;2023-04-03T06:46:57;7.57;;;3.77;;
18793;SDS011;29610;49.022;12.114;2023-04-03T06:49:46;8.40;;;4.30;;
18793;SDS011;29610;49.022;12.114;2023-04-03T06:52:35;10.10;;;4.70;;
18793;SDS011;29610;49.022;12.114;2023-04-03T06:55:26;8.33;;;3.93;;
18793;SDS011;29610;49.022;12.114;2023-04-03T06:58:15;7.50;;;3.40;;
18793;SDS011;29610;49.022;12.114;2023-04-03T07:01:08;10.63;;;3.90;;
18793;SDS011;29610;49.022;12.114;2023-04-03T07:03:59;10.00;;;3.90;;
18793;SDS011;29610;49.022;12.114;2023-04-03T07:06:48;7.67;;;3.83;;
18793;SDS011;29610;49.022;12.114;2023-04-03T07:09:37;9.60;;;3.53;;
18793;SDS011;29610;49.022;12.114;2023-04-03T07:12:27;9.13;;;4.20;;
18793;SDS011;29610;49.022;12.114;2023-04-03T07:15:16;11.27;;;4.30;;
18793;SDS011;29610;49.022;12.114;2023-04-03T07:18:06;7.20;;;2.97;;
18793;SDS011;29610;49.022;12.114;2023-04-03T07:20:55;6.60;;;3.00;;
18793;SDS011;29610;49.022;12.114;2023-04-03T07:23:44;8.77;;;4.67;;
18793;SDS011;29610;49.022;12.114;2023-04-03T07:26:38;14.27;;;3.77;;
18793;SDS011;29610;49.022;12.114;2023-04-03T07:29:29;8.60;;;3.97;;
18793;SDS011;29610;49.022;12.114;2023-04-03T07:32:18;7.53;;;3.47;;
18793;SDS011;29610;49.022;12.114;2023-04-03T07:35:07;12.00;;;3.50;;
18793;SDS011;29610;49.022;12.114;2023-04-03T07:37:56;8.10;;;3.40;;
18793;SDS011;29610;49.022;12.114;2023-04-03T07:40:46;9.20;;;3.70;;
18793;SDS011;29610;49.022;12.114;2023-04-03T07:43:36;8.23;;;2.97;;
18793;SDS011;29610;49.022;12.114;2023-04-03T07:46:26;7.23;;;2.63;;
18793;SDS011;29610;49.022;12.114;2023-04-03T07:49:16;6.77;;;2.70;;
18793;SDS011;29610;49.022;12.114;2023-04-03T07:52:05;10.83;;;3.30;;
18793;SDS011;29610;49.022;12.114;2023-04-03T07:54:56;10.13;;;3.50;;
18793;SDS011;29610;49.022;12.114;2023-04-03T07:57:45;7.60;;;3.07;;
18793;SDS011;29610;49.022;12.114;2023-04-03T08:00:34;6.80;;;2.80;;
18793;SDS011;29610;49.022;12.114;2023-04-03T08:03:24;8.10;;;2.57;;
18793;SDS011;29610;49.022;12.114;2023-04-03T08:06:13;10.93;;;2.60;;
18793;SDS011;29610;49.022;12.114;2023-04-03T08:09:09;8.27;;;3.30;;
18793;SDS011;29610;49.022;12.114;2023-04-03T08:11:58;8.10;;;2.33;;
18793;SDS011;29610;49.022;12.114;2023-04-03T08:14:47;6.10;;;2.67;;
18793;SDS011;29610;49.022;12.114;2023-04-03T08:17:37;8.83;;;2.57;;
18793;SDS011;29610;49.022;12.114;2023-04-03T08:20:27;8.67;;;2.50;;
18793;SDS011;29610;49.022;12.114;2023-04-03T08:23:17;17.37;;;2.83;;
18793;SDS011;29610;49.022;12.114;2023-04-03T08:26:07;7.00;;;2.90;;
18793;SDS011;29610;49.022;12.114;2023-04-03T08:28:58;7.13;;;2.70;;
18793;SDS011;29610;49.022;12.114;2023-04-03T08:31:47;5.57;;;2.07;;
18793;SDS011;29610;49.022;12.114;2023-04-03T08:34:37;6.93;;;2.10;;
18793;SDS011;29610;49.022;12.114;2023-04-03T08:37:28;6.40;;;2.43;;
18793;SDS011;29610;49.022;12.114;2023-04-03T08:40:17;5.97;;;2.23;;
18793;SDS011;29610;49.022;12.114;2023-04-03T08:43:13;10.10;;;2.40;;
18793;SDS011;29610;49.022;12.114;2023-04-03T08:46:26;6.23;;;2.27;;
18793;SDS011;29610;49.022;12.114;2023-04-03T08:49:31;6.07;;;1.90;;
18793;SDS011;29610;49.022;12.114;2023-04-03T08:52:25;5.43;;;1.77;;
18793;SDS011;29610;49.022;12.114;2023-04-03T08:55:25;6.40;;;2.03;;
18793;SDS011;29610;49.022;12.114;2023-04-03T08:58:20;6.00;;;2.10;;
18793;SDS011;29610;49.022;12.114;2023-04-03T09:01:16;5.40;;;1.77;;
18793;SDS011;29610;49.022;12.114;2023-04-03T09:04:10;5.93;;;1.70;;
18793;SDS011;29610;49.022;12.114;2023-04-03T09:07:02;20.90;;;2.17;;
18793;SDS011;29610;49.022;12.114;2023-04-03T09:10:08;8.73;;;2.23;;
18793;SDS011;29610;49.022;12.114;2023-04-03T09:13:01;6.40;;;1.90;;
18793;SDS011;29610;49.022;12.114;2023-04-03T09:15:59;9.90;;;2.80;;
18793;SDS011;29610;49.022;12.114;2023-04-03T09:18:56;5.87;;;1.97;;
18793;SDS011;29610;49.022;12.114;2023-04-03T09:22:07;5.17;;;1.50;;
18793;SDS011;29610;49.022;12.114;2023-04-03T09:25:07;5.80;;;1.53;;
18793;SDS011;29610;49.022;12.114;2023-04-03T09:28:04;11.87;;;2.20;;
18793;SDS011;29610;49.022;12.114;2023-04-03T09:30:56;5.03;;;1.37;;
18793;SDS011;29610;49.022;12.114;2023-04-03T09:33:49;5.20;;;1.50;;
18793;SDS011;29610;49.022;12.114;2023-04-03T09:36:44;5.50;;;1.63;;
18793;SDS011;29610;49.022;12.114;2023-04-03T09:39:48;6.90;;;1.87;;
18793;SDS011;29610;49.022;12.114;2023-04-03T09:42:41;7.77;;;1.90;;
18793;SDS011;29610;49.022;12.114;2023-04-03T09:45:38;5.03;;;1.40;;
18793;SDS011;29610;49.022;12.114;2023-04-03T09:48:27;7.33;;;1.70;;
18793;SDS011;29610;49.022;12.114;2023-04-03T09:51:16;6.17;;;1.90;;
18793;SDS011;29610;49.022;12.114;2023-04-03T09:54:24;4.50;;;1.30;;
18793;SDS011;29610;49.022;12.114;2023-04-03T09:57:20;8.63;;;1.90;;
18793;SDS011;29610;49.022;12.114;2023-04-03T10:00:19;4.50;;;1.30;;
18793;SDS011;29610;49.022;12.114;2023-04-03T10:03:22;5.17;;;1.83;;
18793;SDS011;29610;49.022;12.114;2023-04-03T10:06:21;5.13;;;1.60;;
18793;SDS011;29610;49.022;12.114;2023-04-03T10:09:16;5.00;;;1.30;;
18793;SDS011;29610;49.022;12.114;2023-04-03T10:12:10;6.27;;;1.83;;
18793;SDS011;29610;49.022;12.114;2023-04-03T10:15:01;4.50;;;1.17;;
18793;SDS011;29610;49.022;12.114;2023-04-03T10:17:56;5.50;;;1.53;;
18793;SDS011;29610;49.022;12.114;2023-04-03T10:21:08;6.10;;;1.70;;
18793;SDS011;29610;49.022;12.114;2023-04-03T10:24:14;5.00;;;1.50;;
18793;SDS011;29610;49.022;12.114;2023-04-03T10:27:13;5.57;;;1.90;;
18793;SDS011;29610;49.022;12.114;2023-04-03T10:30:15;6.23;;;1.23;;
18793;SDS011;29610;49.022;12.114;2023-04-03T10:33:22;5.60;;;1.33;;
18793;SDS011;29610;49.022;12.114;2023-04-03T10:36:31;4.97;;;1.23;;
18793;SDS011;29610;49.022;12.114;2023-04-03T10:39:32;9.60;;;1.47;;
18793;SDS011;29610;49.022;12.114;2023-04-03T10:42:33;6.00;;;1.07;;
18793;SDS011;29610;49.022;12.114;2023-04-03T10:45:38;6.77;;;2.00;;
18793;SDS011;29610;49.022;12.114;2023-04-03T10:48:46;5.70;;;1.57;;
18793;SDS011;29610;49.022;12.114;2023-04-03T10:51:51;5.43;;;1.50;;
18793;SDS011;29610;49.022;12.114;2023-04-03T10:54:55;6.17;;;1.37;;
18793;SDS011;29610;49.022;12.114;2023-04-03T10:57:55;6.83;;;1.53;;
18793;SDS011;29610;49.022;12.114;2023-04-03T11:00:47;7.13;;;1.77;;
18793;SDS011;29610;49.022;12.114;2023-04-03T11:03:42;5.20;;;1.53;;
18793;SDS011;29610;49.022;12.114;2023-04-03T11:06:41;5.53;;;1.77;;
18793;SDS011;29610;49.022;12.114;2023-04-03T11:09:37;4.30;;;0.90;;
18793;SDS011;29610;49.022;12.114;2023-04-03T11:12:34;5.47;;;1.27;;
18793;SDS011;29610;49.022;12.114;2023-04-03T11:15:33;7.33;;;1.77;;
18793;SDS011;29610;49.022;12.114;2023-04-03T11:18:25;7.13;;;1.73;;
18793;SDS011;29610;49.022;12.114;2023-04-03T11:21:26;5.20;;;1.30;;
18793;SDS011;29610;49.022;12.114;2023-04-03T11:24:22;4.90;;;1.40;;
18793;SDS011;29610;49.022;12.114;2023-04-03T11:27:15;7.23;;;1.57;;
18793;SDS011;29610;49.022;12.114;2023-04-03T11:30:13;6.47;;;1.37;;
18793;SDS011;29610;49.022;12.114;2023-04-03T11:33:16;6.40;;;1.30;;
18793;SDS011;29610;49.022;12.114;2023-04-03T11:36:21;6.20;;;1.40;;
18793;SDS011;29610;49.022;12.114;2023-04-03T11:39:21;5.90;;;1.60;;
18793;SDS011;29610;49.022;12.114;2023-04-03T11:42:16;5.97;;;1.60;;
18793;SDS011;29610;49.022;12.114;2023-04-03T11:45:23;5.40;;;1.17;;
18793;SDS011;29610;49.022;12.114;2023-04-03T11:51:42;6.50;;;1.37;;
18793;SDS011;29610;49.022;12.114;2023-04-03T11:57:43;5.20;;;1.30;;
18793;SDS011;29610;49.022;12.114;2023-04-03T12:04:05;8.53;;;1.27;;
18793;SDS011;29610;49.022;12.114;2023-04-03T12:10:14;6.07;;;1.60;;
18793;SDS011;29610;49.022;12.114;2023-04-03T12:13:18;5.97;;;1.50;;
18793;SDS011;29610;49.022;12.114;2023-04-03T12:16:08;5.37;;;1.40;;
18793;SDS011;29610;49.022;12.114;2023-04-03T12:22:28;6.33;;;2.20;;
18793;SDS011;29610;49.022;12.114;2023-04-03T12:28:37;5.57;;;1.40;;
18793;SDS011;29610;49.022;12.114;2023-04-03T12:31:32;5.90;;;1.57;;
18793;SDS011;29610;49.022;12.114;2023-04-03T12:34:38;8.33;;;2.30;;
18793;SDS011;29610;49.022;12.114;2023-04-03T12:38:17;7.27;;;2.50;;
18793;SDS011;29610;49.022;12.114;2023-04-03T12:41:28;5.37;;;1.60;;
18793;SDS011;29610;49.022;12.114;2023-04-03T12:44:38;8.27;;;1.43;;
18793;SDS011;29610;49.022;12.114;2023-04-03T12:47:36;6.33;;;1.70;;
18793;SDS011;29610;49.022;12.114;2023-04-03T12:50:27;5.70;;;1.60;;
18793;SDS011;29610;49.022;12.114;2023-04-03T12:53:21;6.27;;;1.60;;
18793;SDS011;29610;49.022;12.114;2023-04-03T12:56:21;5.47;;;1.50;;
18793;SDS011;29610;49.022;12.114;2023-04-03T12:59:14;7.60;;;2.20;;
18793;SDS011;29610;49.022;12.114;2023-04-03T13:02:10;7.03;;;1.50;;
18793;SDS011;29610;49.022;12.114;2023-04-03T13:05:13;5.77;;;1.57;;
18793;SDS011;29610;49.022;12.114;2023-04-03T13:08:08;6.37;;;1.87;;
18793;SDS011;29610;49.022;12.114;2023-04-03T13:11:05;5.97;;;1.90;;
18793;SDS011;29610;49.022;12.114;2023-04-03T13:14:00;6.80;;;1.70;;
18793;SDS011;29610;49.022;12.114;2023-04-03T13:16:52;9.27;;;1.93;;
18793;SDS011;29610;49.022;12.114;2023-04-03T13:19:43;8.20;;;2.43;;
18793;SDS011;29610;49.022;12.114;2023-04-03T13:22:34;6.67;;;1.97;;
18793;SDS011;29610;49.022;12.114;2023-04-03T13:25:31;5.10;;;1.30;;
18793;SDS011;29610;49.022;12.114;2023-04-03T13:28:25;6.30;;;1.40;;
18793;SDS011;29610;49.022;12.114;2023-04-03T13:31:19;7.60;;;2.33;;
18793;SDS011;29610;49.022;12.114;2023-04-03T13:34:16;7.87;;;2.17;;
18793;SDS011;29610;49.022;12.114;2023-04-03T13:37:11;6.50;;;2.27;;
18793;SDS011;29610;49.022;12.114;2023-04-03T13:40:11;5.30;;;1.37;;
18793;SDS011;29610;49.022;12.114;2023-04-03T13:43:02;5.27;;;1.50;;
18793;SDS011;29610;49.022;12.114;2023-04-03T13:46:20;5.20;;;1.40;;
18793;SDS011;29610;49.022;12.114;2023-04-03T13:49:18;6.80;;;2.03;;
18793;SDS011;29610;49.022;12.114;2023-04-03T13:52:21;8.53;;;3.27;;
18793;SDS011;29610;49.022;12.114;2023-04-03T13:55:19;8.47;;;2.37;;
18793;SDS011;29610;49.022;12.114;2023-04-03T13:58:20;5.90;;;1.40;;
18793;SDS011;29610;49.022;12.114;2023-04-03T14:01:17;5.80;;;1.70;;
18793;SDS011;29610;49.022;12.114;2023-04-03T14:04:11;8.47;;;1.63;;
18793;SDS011;29610;49.022;12.114;2023-04-03T14:07:05;7.57;;;1.83;;
18793;SDS011;29610;49.022;12.114;2023-04-03T14:09:54;7.47;;;2.13;;
18793;SDS011;29610;49.022;12.114;2023-04-03T14:12:43;9.93;;;1.73;;
18793;SDS011;29610;49.022;12.114;2023-04-03T14:15:33;7.73;;;2.00;;
18793;SDS011;29610;49.022;12.114;2023-04-03T14:18:23;9.03;;;2.63;;
18793;SDS011;29610;49.022;12.114;2023-04-03T14:21:13;8.90;;;2.43;;
18793;SDS011;29610;49.022;12.114;2023-04-03T14:24:05;11.53;;;2.30;;
18793;SDS011;29610;49.022;12.114;2023-04-03T14:26:54;6.70;;;1.70;;
18793;SDS011;29610;49.022;12.114;2023-04-03T14:29:43;6.80;;;1.70;;
18793;SDS011;29610;49.022;12.114;2023-04-03T14:32:33;7.57;;;2.20;;
18793;SDS011;29610;49.022;12.114;2023-04-03T14:35:24;6.13;;;1.63;;
18793;SDS011;29610;49.022;12.114;2023-04-03T14:38:20;6.63;;;1.60;;
18793;SDS011;29610;49.022;12.114;2023-04-03T14:41:13;5.73;;;1.70;;
18793;SDS011;29610;49.022;12.114;2023-04-03T14:44:06;7.87;;;1.60;;
18793;SDS011;29610;49.022;12.114;2023-04-03T14:46:55;10.23;;;1.67;;
18793;SDS011;29610;49.022;12.114;2023-04-03T14:49:44;10.03;;;2.67;;
18793;SDS011;29610;49.022;12.114;2023-04-03T14:52:37;7.63;;;2.40;;
18793;SDS011;29610;49.022;12.114;2023-04-03T14:55:27;5.30;;;1.90;;
18793;SDS011;29610;49.022;12.114;2023-04-03T14:58:19;8.47;;;2.40;;
18793;SDS011;29610;49.022;12.114;2023-04-03T15:01:09;9.70;;;4.13;;
18793;SDS011;29610;49.022;12.114;2023-04-03T15:04:01;6.40;;;2.63;;
18793;SDS011;29610;49.022;12.114;2023-04-03T15:06:53;6.70;;;2.50;;
18793;SDS011;29610;49.022;12.114;2023-04-03T15:09:43;6.47;;;2.23;;
18793;SDS011;29610;49.022;12.114;2023-04-03T15:12:32;6.33;;;2.37;;
18793;SDS011;29610;49.022;12.114;2023-04-03T15:15:21;5.00;;;1.63;;
18793;SDS011;29610;49.022;12.114;2023-04-03T15:18:14;7.43;;;2.03;;
18793;SDS011;29610;49.022;12.114;2023-04-03T15:21:08;6.53;;;1.80;;
18793;SDS011;29610;49.022;12.114;2023-04-03T15:23:58;7.73;;;2.30;;
18793;SDS011;29610;49.022;12.114;2023-04-03T15:26:49;6.73;;;1.50;;
18793;SDS011;29610;49.022;12.114;2023-04-03T15:29:38;5.80;;;1.53;;
18793;SDS011;29610;49.022;12.114;2023-04-03T15:32:30;9.33;;;2.10;;
18793;SDS011;29610;49.022;12.114;2023-04-03T15:35:20;5.60;;;2.03;;
18793;SDS011;29610;49.022;12.114;2023-04-03T15:38:10;7.20;;;2.00;;
18793;SDS011;29610;49.022;12.114;2023-04-03T15:40:59;7.30;;;2.50;;
18793;SDS011;29610;49.022;12.114;2023-04-03T15:43:50;10.33;;;3.13;;
18793;SDS011;29610;49.022;12.114;2023-04-03T15:46:39;6.00;;;2.10;;
18793;SDS011;29610;49.022;12.114;2023-04-03T15:49:28;5.33;;;1.87;;
18793;SDS011;29610;49.022;12.114;2023-04-03T15:52:18;11.53;;;3.97;;
18793;SDS011;29610;49.022;12.114;2023-04-03T15:55:07;7.13;;;2.63;;
18793;SDS011;29610;49.022;12.114;2023-04-03T15:57:57;6.00;;;1.80;;
18793;SDS011;29610;49.022;12.114;2023-04-03T16:00:48;6.43;;;1.73;;
18793;SDS011;29610;49.022;12.114;2023-04-03T16:03:37;7.13;;;2.20;;
18793;SDS011;29610;49.022;12.114;2023-04-03T16:06:32;9.60;;;3.77;;
18793;SDS011;29610;49.022;12.114;2023-04-03T16:09:21;7.80;;;2.53;;
18793;SDS011;29610;49.022;12.114;2023-04-03T16:12:10;5.43;;;1.80;;
18793;SDS011;29610;49.022;12.114;2023-04-03T16:14:59;6.30;;;2.30;;
18793;SDS011;29610;49.022;12.114;2023-04-03T16:17:50;7.63;;;3.13;;
18793;SDS011;29610;49.022;12.114;2023-04-03T16:20:40;8.27;;;3.03;;
18793;SDS011;29610;49.022;12.114;2023-04-03T16:23:30;5.60;;;1.80;;
18793;SDS011;29610;49.022;12.114;2023-04-03T16:26:19;6.20;;;2.03;;
18793;SDS011;29610;49.022;12.114;2023-04-03T16:29:08;6.87;;;2.10;;
18793;SDS011;29610;49.022;12.114;2023-04-03T16:31:57;7.60;;;1.60;;
18793;SDS011;29610;49.022;12.114;2023-04-03T16:34:48;5.60;;;1.80;;
18793;SDS011;29610;49.022;12.114;2023-04-03T16:37:37;7.20;;;1.63;;
18793;SDS011;29610;49.022;12.114;2023-04-03T16:40:27;4.93;;;1.70;;
18793;SDS011;29610;49.022;12.114;2023-04-03T16:43:16;5.60;;;2.10;;
18793;SDS011;29610;49.022;12.114;2023-04-03T16:46:05;7.90;;;1.77;;
18793;SDS011;29610;49.022;12.114;2023-04-03T16:48:54;9.77;;;2.40;;
18793;SDS011;29610;49.022;12.114;2023-04-03T16:51:44;5.87;;;1.87;;
18793;SDS011;29610;49.022;12.114;2023-04-03T16:54:33;5.20;;;1.90;;
18793;SDS011;29610;49.022;12.114;2023-04-03T16:57:22;5.80;;;1.60;;
18793;SDS011;29610;49.022;12.114;2023-04-03T17:00:12;5.80;;;1.80;;
18793;SDS011;29610;49.022;12.114;2023-04-03T17:03:02;5.20;;;1.70;;
18793;SDS011;29610;49.022;12.114;2023-04-03T17:05:51;6.60;;;2.30;;
18793;SDS011;29610;49.022;12.114;2023-04-03T17:08:42;9.47;;;3.03;;
18793;SDS011;29610;49.022;12.114;2023-04-03T17:11:45;6.10;;;2.67;;
18793;SDS011;29610;49.022;12.114;2023-04-03T17:14:35;6.80;;;2.23;;
18793;SDS011;29610;49.022;12.114;2023-04-03T17:17:24;6.20;;;2.43;;
18793;SDS011;29610;49.022;12.114;2023-04-03T17:20:14;6.33;;;2.70;;
18793;SDS011;29610;49.022;12.114;2023-04-03T17:23:03;5.53;;;2.17;;
18793;SDS011;29610;49.022;12.114;2023-04-03T17:25:54;5.90;;;2.07;;